createdAt,value
2019-03-01T00:00:08.669Z,47.20
2019-03-01T00:02:37.328Z,47.00
2019-03-01T00:05:31.648Z,47.10
2019-03-01T00:08:08.454Z,45.90
2019-03-01T00:11:13.299Z,45.10
2019-03-01T00:14:02.696Z,43.70
2019-03-01T00:16:40.234Z,44.60
2019-03-01T00:19:17.651Z,45.50
2019-03-01T00:21:54.758Z,45.70
2019-03-01T00:24:32.051Z,46.00
2019-03-01T00:27:33.839Z,45.90
2019-03-01T00:30:11.266Z,46.00
2019-03-01T00:32:45.717Z,46.60
2019-03-01T00:35:35.654Z,48.30
2019-03-01T00:38:13.112Z,49.20
2019-03-01T00:41:02.878Z,49.90
2019-03-01T00:43:58.421Z,50.40
2019-03-01T00:46:26.879Z,50.60
2019-03-01T00:48:55.329Z,51.20
2019-03-01T00:51:23.782Z,51.00
2019-03-01T00:53:52.246Z,50.70
2019-03-01T00:56:20.779Z,50.80
2019-03-01T00:58:49.236Z,50.60
2019-03-01T01:01:17.679Z,50.80
2019-03-01T01:03:46.214Z,50.30
2019-03-01T01:06:14.735Z,50.70
2019-03-01T01:08:43.267Z,51.10
2019-03-01T01:11:11.787Z,51.80
2019-03-01T01:13:40.242Z,52.30
2019-03-01T01:16:08.701Z,52.50
2019-03-01T01:18:37.218Z,53.30
2019-03-01T01:21:05.747Z,54.30
2019-03-01T01:23:34.187Z,54.60
2019-03-01T01:26:02.720Z,54.50
2019-03-01T01:28:31.184Z,55.20
2019-03-01T01:30:59.659Z,55.70
2019-03-01T01:33:28.110Z,56.10
2019-03-01T01:35:56.630Z,56.10
2019-03-01T01:38:25.097Z,57.00
2019-03-01T01:40:53.611Z,56.00
2019-03-01T01:43:22.440Z,55.70
2019-03-01T01:45:51.767Z,56.20
2019-03-01T01:48:20.388Z,56.70
2019-03-01T01:50:48.838Z,57.50
2019-03-01T01:53:17.291Z,57.60
2019-03-01T01:55:45.750Z,57.60
2019-03-01T01:58:14.196Z,59.30
2019-03-01T02:00:42.710Z,59.50
2019-03-01T02:03:11.178Z,58.90
2019-03-01T02:05:39.791Z,60.20
2019-03-01T02:08:08.318Z,61.40
2019-03-01T02:10:36.903Z,61.40
2019-03-01T02:13:05.502Z,63.60
2019-03-01T02:15:33.945Z,68.80
2019-03-01T02:18:02.410Z,68.40
2019-03-01T02:20:32.399Z,68.00
2019-03-01T02:23:00.903Z,70.20
2019-03-01T02:25:29.358Z,69.70
2019-03-01T02:27:57.794Z,69.50
2019-03-01T02:30:45.873Z,68.40
2019-03-01T02:33:14.383Z,68.30
2019-03-01T02:35:42.923Z,67.20
2019-03-01T02:38:11.399Z,69.40
2019-03-01T02:40:39.838Z,78.50
2019-03-01T02:43:08.300Z,77.20
2019-03-01T02:45:36.850Z,76.10
2019-03-01T02:48:05.363Z,78.10
2019-03-01T02:50:33.803Z,80.50
2019-03-01T02:53:02.256Z,77.00
2019-03-01T02:55:31.145Z,76.40
2019-03-01T02:57:59.660Z,78.80
2019-03-01T03:00:30.319Z,78.00
2019-03-01T03:02:58.905Z,77.10
2019-03-01T03:05:27.435Z,72.60
2019-03-01T03:07:57.725Z,76.70
2019-03-01T03:10:26.318Z,72.20
2019-03-01T03:12:57.589Z,70.20
2019-03-01T03:15:39.467Z,59.60
2019-03-01T03:18:08.000Z,56.10
2019-03-01T03:20:36.529Z,55.20
2019-03-01T03:23:05.119Z,53.00
2019-03-01T03:25:33.569Z,53.30
2019-03-01T03:28:02.103Z,53.70
2019-03-01T03:30:30.820Z,52.80
2019-03-01T03:32:59.295Z,52.40
2019-03-01T03:35:27.745Z,52.40
2019-03-01T03:37:56.207Z,52.30
2019-03-01T03:40:24.722Z,52.20
2019-03-01T03:42:53.189Z,52.20
2019-03-01T03:45:21.777Z,52.70
2019-03-01T03:47:50.252Z,51.60
2019-03-01T03:50:18.842Z,50.30
2019-03-01T03:52:47.292Z,50.10
2019-03-01T03:55:17.299Z,50.00
2019-03-01T03:57:45.834Z,50.50
2019-03-01T04:00:21.854Z,50.20
2019-03-01T04:02:50.367Z,51.00
2019-03-01T04:05:18.819Z,50.60
2019-03-01T04:07:47.415Z,50.20
2019-03-01T04:10:16.005Z,50.20
2019-03-01T04:12:44.545Z,49.80
2019-03-01T04:15:15.263Z,50.40
2019-03-01T04:17:43.727Z,50.60
2019-03-01T04:20:15.076Z,51.20
2019-03-01T04:22:43.680Z,51.80
2019-03-01T04:25:12.262Z,51.30
2019-03-01T04:27:40.707Z,51.50
2019-03-01T04:30:12.481Z,50.90
2019-03-01T04:32:40.923Z,50.50
2019-03-01T04:35:09.899Z,50.50
2019-03-01T04:37:38.416Z,50.30
2019-03-01T04:40:09.579Z,50.50
2019-03-01T04:42:38.035Z,51.20
2019-03-01T04:45:09.357Z,51.10
2019-03-01T04:47:37.924Z,51.20
2019-03-01T04:50:08.906Z,51.90
2019-03-01T04:52:37.634Z,51.60
2019-03-01T04:55:09.378Z,51.40
2019-03-01T04:57:37.830Z,51.30
2019-03-01T05:00:09.367Z,51.30
2019-03-01T05:02:37.875Z,51.20
2019-03-01T05:05:06.675Z,51.50
2019-03-01T05:07:35.119Z,51.90
2019-03-01T05:10:05.015Z,51.40
2019-03-01T05:12:33.454Z,51.90
2019-03-01T05:15:02.094Z,52.30
2019-03-01T05:17:30.634Z,51.80
2019-03-01T05:19:59.156Z,51.20
2019-03-01T05:22:27.620Z,51.70
2019-03-01T05:24:56.063Z,49.30
2019-03-01T05:27:24.523Z,48.90
2019-03-01T05:29:52.965Z,47.90
2019-03-01T05:32:21.414Z,47.50
2019-03-01T05:34:49.862Z,47.60
2019-03-01T05:37:18.310Z,47.50
2019-03-01T05:39:46.767Z,47.00
2019-03-01T05:42:15.275Z,46.90
2019-03-01T05:44:43.739Z,45.70
2019-03-01T05:47:12.259Z,45.30
2019-03-01T05:49:40.703Z,45.50
2019-03-01T05:52:09.162Z,45.00
2019-03-01T05:54:37.618Z,44.70
2019-03-01T05:57:06.062Z,45.00
2019-03-01T05:59:34.520Z,45.60
2019-03-01T06:02:21.012Z,45.10
2019-03-01T06:04:52.681Z,45.00
2019-03-01T06:07:29.859Z,44.90
2019-03-01T06:10:19.342Z,44.80
2019-03-01T06:12:53.445Z,44.80
2019-03-01T06:15:39.417Z,45.50
2019-03-01T06:18:26.072Z,45.70
2019-03-01T06:21:18.781Z,45.80
2019-03-01T06:24:05.301Z,46.40
2019-03-01T06:26:51.736Z,46.20
2019-03-01T06:29:38.542Z,47.80
2019-03-01T06:32:45.107Z,49.10
2019-03-01T06:35:16.626Z,49.20
2019-03-01T06:38:08.097Z,49.80
2019-03-01T06:40:52.934Z,50.70
2019-03-01T06:43:30.578Z,51.80
2019-03-01T06:46:02.107Z,52.60
2019-03-01T06:48:32.190Z,52.40
2019-03-01T06:51:02.291Z,52.00
2019-03-01T06:53:30.778Z,52.40
2019-03-01T06:55:59.362Z,52.50
2019-03-01T06:58:27.814Z,52.30
2019-03-01T07:00:57.894Z,51.80
2019-03-01T07:03:26.559Z,50.50
2019-03-01T07:06:03.108Z,50.20
2019-03-01T07:08:25.212Z,49.90
2019-03-01T07:10:53.686Z,48.60
2019-03-01T07:13:22.130Z,47.80
2019-03-01T07:15:50.578Z,48.30
2019-03-01T07:18:19.034Z,48.80
2019-03-01T07:20:47.474Z,46.30
2019-03-01T07:23:15.934Z,45.70
2019-03-01T07:25:44.379Z,45.80
2019-03-01T07:28:12.843Z,45.00
2019-03-01T07:30:41.283Z,45.20
2019-03-01T07:33:09.751Z,43.80
2019-03-01T07:35:38.191Z,43.80
2019-03-01T07:38:06.650Z,44.10
2019-03-01T07:40:35.091Z,44.70
2019-03-01T07:43:03.692Z,44.90
2019-03-01T07:45:32.151Z,45.80
2019-03-01T07:48:00.606Z,45.00
2019-03-01T07:50:29.130Z,44.10
2019-03-01T07:53:00.187Z,43.80
2019-03-01T07:55:28.392Z,43.80
2019-03-01T07:57:57.956Z,45.60
2019-03-01T08:00:26.414Z,45.00
2019-03-01T08:02:54.878Z,45.00
2019-03-01T08:05:23.336Z,44.80
2019-03-01T08:07:56.029Z,43.80
2019-03-01T08:10:23.023Z,44.00
2019-03-01T08:12:51.899Z,44.30
2019-03-01T08:15:20.417Z,44.30
2019-03-01T08:17:48.884Z,44.40
2019-03-01T08:20:18.752Z,43.90
2019-03-01T08:22:48.919Z,43.90
2019-03-01T08:25:22.472Z,42.50
2019-03-01T08:27:50.169Z,41.80
2019-03-01T08:30:18.665Z,41.00
2019-03-01T08:32:47.152Z,41.20
2019-03-01T08:35:17.290Z,41.90
2019-03-01T08:37:45.823Z,40.80
2019-03-01T08:40:16.306Z,39.90
2019-03-01T08:42:45.153Z,39.10
2019-03-01T08:45:15.786Z,39.40
2019-03-01T08:47:44.305Z,40.40
2019-03-01T08:50:16.566Z,40.70
2019-03-01T08:52:45.874Z,39.50
2019-03-01T08:55:22.757Z,39.20
2019-03-01T08:57:51.417Z,39.60
2019-03-01T09:00:31.862Z,39.20
2019-03-01T09:03:22.316Z,39.20
2019-03-01T09:05:48.768Z,39.70
2019-03-01T09:08:19.287Z,39.00
2019-03-01T09:10:47.425Z,40.20
2019-03-01T09:13:15.921Z,40.10
2019-03-01T09:15:46.161Z,39.20
2019-03-01T09:18:15.354Z,39.80
2019-03-01T09:20:44.335Z,38.80
2019-03-01T09:23:22.934Z,38.60
2019-03-01T09:25:44.765Z,37.70
2019-03-01T09:28:13.199Z,38.00
2019-03-01T09:30:43.570Z,36.50
2019-03-01T09:33:11.967Z,37.60
2019-03-01T09:35:44.495Z,37.40
2019-03-01T09:38:13.053Z,37.70
2019-03-01T09:40:41.517Z,37.80
2019-03-01T09:43:09.958Z,37.30
2019-03-01T09:45:38.415Z,37.30
2019-03-01T09:48:08.667Z,36.60
2019-03-01T09:50:38.300Z,36.70
2019-03-01T09:53:06.837Z,36.80
2019-03-01T09:55:37.707Z,36.50
2019-03-01T09:58:05.692Z,37.30
2019-03-01T10:00:40.735Z,37.00
2019-03-01T10:03:09.189Z,36.80
2019-03-01T10:05:37.639Z,37.00
2019-03-01T10:08:07.750Z,36.50
2019-03-01T10:10:36.406Z,35.70
2019-03-01T10:13:05.002Z,36.70
2019-03-01T10:15:33.595Z,36.50
2019-03-01T10:18:02.044Z,35.90
2019-03-01T10:20:30.503Z,35.70
2019-03-01T10:22:58.937Z,37.10
2019-03-01T10:25:27.535Z,36.90
2019-03-01T10:27:55.978Z,35.70
2019-03-01T10:30:25.615Z,35.70
2019-03-01T10:32:54.210Z,35.30
2019-03-01T10:35:22.718Z,35.50
2019-03-01T10:37:51.321Z,35.90
2019-03-01T10:40:23.578Z,36.40
2019-03-01T10:42:52.030Z,36.20
2019-03-01T10:45:30.642Z,35.30
2019-03-01T10:47:59.210Z,35.80
2019-03-01T10:50:27.771Z,36.40
2019-03-01T10:52:56.233Z,35.80
2019-03-01T10:55:24.757Z,36.50
2019-03-01T10:57:53.199Z,35.30
2019-03-01T11:00:26.580Z,35.70
2019-03-01T11:02:56.298Z,35.40
2019-03-01T11:05:25.670Z,35.60
2019-03-01T11:07:54.967Z,35.50
2019-03-01T11:10:31.827Z,35.90
2019-03-01T11:13:00.338Z,36.10
2019-03-01T11:15:28.845Z,36.50
2019-03-01T11:17:57.301Z,36.30
2019-03-01T11:20:25.886Z,36.70
2019-03-01T11:22:54.415Z,36.50
2019-03-01T11:25:27.018Z,35.20
2019-03-01T11:27:55.881Z,35.30
2019-03-01T11:30:29.987Z,36.40
2019-03-01T11:32:58.431Z,36.00
2019-03-01T11:35:27.027Z,36.30
2019-03-01T11:37:55.481Z,37.90
2019-03-01T11:40:27.027Z,39.00
2019-03-01T11:42:55.671Z,38.20
2019-03-01T11:45:24.215Z,39.60
2019-03-01T11:47:52.657Z,40.70
2019-03-01T11:50:22.854Z,41.20
2019-03-01T11:52:51.294Z,40.50
2019-03-01T11:55:19.815Z,40.20
2019-03-01T11:57:48.344Z,40.40
2019-03-01T12:00:22.766Z,40.40
2019-03-01T12:02:51.379Z,40.40
2019-03-01T12:05:20.340Z,40.30
2019-03-01T12:07:49.113Z,39.30
2019-03-01T12:10:31.703Z,39.80
2019-03-01T12:13:00.215Z,40.20
2019-03-01T12:15:28.734Z,40.70
2019-03-01T12:17:57.190Z,41.00
2019-03-01T12:20:32.921Z,41.20
2019-03-01T12:23:01.420Z,41.30
2019-03-01T12:25:30.021Z,41.20
2019-03-01T12:27:58.533Z,40.90
2019-03-01T12:30:27.555Z,41.30
2019-03-01T12:32:56.155Z,40.90
2019-03-01T12:35:24.659Z,42.20
2019-03-01T12:37:53.123Z,42.60
2019-03-01T12:40:29.479Z,42.60
2019-03-01T12:42:58.148Z,42.50
2019-03-01T12:45:26.636Z,43.00
2019-03-01T12:47:55.120Z,42.90
2019-03-01T12:50:23.647Z,43.70
2019-03-01T12:52:52.186Z,43.50
2019-03-01T12:55:26.037Z,42.00
2019-03-01T12:57:54.617Z,41.70
2019-03-01T13:00:25.782Z,42.10
2019-03-01T13:02:54.227Z,42.40
2019-03-01T13:05:25.567Z,43.20
2019-03-01T13:07:54.414Z,44.00
2019-03-01T13:10:25.302Z,43.60
2019-03-01T13:12:54.679Z,43.20
2019-03-01T13:15:23.391Z,43.50
2019-03-01T13:17:51.855Z,43.40
2019-03-01T13:20:20.570Z,43.80
2019-03-01T13:22:49.119Z,43.30
2019-03-01T13:25:17.647Z,45.00
2019-03-01T13:27:48.935Z,43.70
2019-03-01T13:30:28.114Z,43.40
2019-03-01T13:32:58.824Z,43.60
2019-03-01T13:35:27.602Z,44.60
2019-03-01T13:37:56.822Z,44.30
2019-03-01T13:40:25.604Z,43.90
2019-03-01T13:42:54.130Z,44.70
2019-03-01T13:45:23.893Z,45.20
2019-03-01T13:47:52.490Z,44.30
2019-03-01T13:50:21.970Z,44.60
2019-03-01T13:52:50.433Z,45.30
2019-03-01T13:55:22.266Z,44.90
2019-03-01T13:57:51.161Z,44.60
2019-03-01T14:00:21.911Z,44.50
2019-03-01T14:02:50.517Z,44.30
2019-03-01T14:05:19.259Z,44.40
2019-03-01T14:07:48.577Z,44.20
2019-03-01T14:10:22.406Z,44.80
2019-03-01T14:12:50.939Z,45.10
2019-03-01T14:15:19.544Z,44.90
2019-03-01T14:17:49.038Z,44.50
2019-03-01T14:20:21.046Z,44.80
2019-03-01T14:22:50.007Z,45.00
2019-03-01T14:25:18.667Z,44.70
2019-03-01T14:27:47.614Z,45.20
2019-03-01T14:30:30.219Z,44.70
2019-03-01T14:32:57.557Z,45.10
2019-03-01T14:35:26.823Z,44.30
2019-03-01T14:37:55.645Z,43.50
2019-03-01T14:40:24.390Z,43.80
2019-03-01T14:42:52.961Z,44.10
2019-03-01T14:45:32.396Z,45.10
2019-03-01T14:48:00.856Z,47.00
2019-03-01T14:50:33.845Z,47.50
2019-03-01T14:53:00.839Z,46.60
2019-03-01T14:55:38.502Z,46.40
2019-03-01T14:58:10.034Z,46.10
2019-03-01T15:00:41.578Z,46.40
2019-03-01T15:03:16.440Z,46.10
2019-03-01T15:05:43.283Z,46.90
2019-03-01T15:08:11.801Z,46.80
2019-03-01T15:10:40.245Z,45.60
2019-03-01T15:13:08.777Z,45.40
2019-03-01T15:15:37.307Z,45.80
2019-03-01T15:18:05.839Z,45.80
2019-03-01T15:20:34.296Z,46.20
2019-03-01T15:23:02.745Z,44.70
2019-03-01T15:25:31.217Z,44.10
2019-03-01T15:27:59.674Z,44.60
2019-03-01T15:30:28.119Z,45.10
2019-03-01T15:32:56.579Z,45.30
2019-03-01T15:35:25.019Z,45.30
2019-03-01T15:37:53.470Z,45.50
2019-03-01T15:40:21.939Z,44.60
2019-03-01T15:42:51.467Z,45.10
2019-03-01T15:45:20.582Z,45.10
2019-03-01T15:47:50.452Z,44.20
2019-03-01T15:50:19.191Z,43.80
2019-03-01T15:52:49.654Z,43.40
2019-03-01T15:55:18.237Z,42.90
2019-03-01T15:57:46.742Z,43.40
2019-03-01T16:00:17.191Z,43.80
2019-03-01T16:02:45.648Z,44.00
2019-03-01T16:05:14.928Z,43.80
2019-03-01T16:07:43.527Z,45.20
2019-03-01T16:10:14.485Z,44.80
2019-03-01T16:12:42.941Z,45.10
2019-03-01T16:15:18.129Z,45.00
2019-03-01T16:17:46.665Z,45.70
2019-03-01T16:20:17.350Z,45.90
2019-03-01T16:22:45.959Z,46.10
2019-03-01T16:25:20.534Z,46.90
2019-03-01T16:27:50.663Z,46.70
2019-03-01T16:30:19.942Z,46.90
2019-03-01T16:32:50.453Z,46.80
2019-03-01T16:35:21.525Z,47.10
2019-03-01T16:37:57.709Z,47.30
2019-03-01T16:40:24.555Z,47.60
2019-03-01T16:42:54.360Z,47.70
2019-03-01T16:45:24.104Z,48.20
2019-03-01T16:47:52.538Z,48.70
2019-03-01T16:50:21.266Z,48.50
2019-03-01T16:52:49.789Z,49.10
2019-03-01T16:55:20.856Z,49.00
2019-03-01T16:57:52.321Z,49.00
2019-03-01T17:00:21.826Z,48.70
2019-03-01T17:02:53.032Z,48.70
2019-03-01T17:05:21.491Z,49.10
2019-03-01T17:07:50.008Z,49.10
2019-03-01T17:10:19.305Z,49.20
2019-03-01T17:12:48.818Z,49.50
2019-03-01T17:15:22.110Z,49.60
2019-03-01T17:17:50.793Z,49.90
2019-03-01T17:20:19.314Z,50.10
2019-03-01T17:22:47.757Z,50.40
2019-03-01T17:25:16.962Z,50.50
2019-03-01T17:27:46.364Z,50.50
2019-03-01T17:30:19.475Z,50.60
2019-03-01T17:32:48.074Z,50.30
2019-03-01T17:35:16.655Z,50.50
2019-03-01T17:37:45.122Z,50.60
2019-03-01T17:40:17.824Z,50.70
2019-03-01T17:42:46.405Z,52.00
2019-03-01T17:45:23.571Z,52.50
2019-03-01T17:47:52.363Z,52.60
2019-03-01T17:50:20.874Z,53.00
2019-03-01T17:52:49.494Z,53.20
2019-03-01T17:55:24.344Z,54.10
2019-03-01T17:57:53.249Z,53.90
2019-03-01T18:00:43.010Z,54.00
2019-03-01T18:03:11.461Z,54.30
2019-03-01T18:05:40.542Z,54.30
2019-03-01T18:08:10.038Z,54.30
2019-03-01T18:10:38.625Z,54.30
2019-03-01T18:13:07.146Z,54.60
2019-03-01T18:15:35.659Z,54.60
2019-03-01T18:18:04.166Z,54.70
2019-03-01T18:20:33.884Z,55.60
2019-03-01T18:23:03.194Z,55.70
2019-03-01T18:25:31.790Z,56.00
2019-03-01T18:28:00.218Z,57.10
2019-03-01T18:30:33.642Z,58.30
2019-03-01T18:33:02.088Z,59.30
2019-03-01T18:35:30.614Z,61.80
2019-03-01T18:37:59.126Z,64.20
2019-03-01T18:40:27.595Z,67.00
2019-03-01T18:42:56.774Z,69.90
2019-03-01T18:45:27.692Z,73.00
2019-03-01T18:47:56.159Z,76.90
2019-03-01T18:50:31.185Z,80.20
2019-03-01T18:53:03.450Z,84.80
2019-03-01T18:55:31.537Z,88.50
2019-03-01T18:58:00.393Z,91.20
2019-03-01T19:00:37.739Z,95.10
2019-03-01T19:03:07.035Z,96.60
2019-03-01T19:05:36.562Z,98.30
2019-03-01T19:08:06.266Z,99.50
2019-03-01T19:10:35.678Z,99.90
2019-03-01T19:13:04.453Z,99.90
2019-03-01T19:15:33.038Z,99.90
2019-03-01T19:18:01.473Z,99.90
2019-03-01T19:20:42.443Z,99.90
2019-03-01T19:23:11.039Z,99.90
2019-03-01T19:25:39.496Z,99.90
2019-03-01T19:28:08.020Z,99.90
2019-03-01T19:30:36.550Z,99.90
2019-03-01T19:33:05.150Z,99.90
2019-03-01T19:35:33.657Z,99.90
2019-03-01T19:38:02.118Z,99.90
2019-03-01T19:40:30.715Z,99.90
2019-03-01T19:42:59.177Z,99.90
2019-03-01T19:45:27.697Z,99.90
2019-03-01T19:48:01.295Z,99.90
2019-03-01T19:50:28.617Z,99.90
2019-03-01T19:52:57.059Z,99.90
2019-03-01T19:55:25.581Z,99.90
2019-03-01T19:57:54.652Z,99.90
2019-03-01T20:00:28.476Z,99.90
2019-03-01T20:02:57.279Z,99.90
2019-03-01T20:05:35.832Z,99.90
2019-03-01T20:08:04.401Z,99.90
2019-03-01T20:10:33.175Z,99.90
2019-03-01T20:13:02.029Z,99.90
2019-03-01T20:15:31.392Z,99.90
2019-03-01T20:18:00.017Z,99.90
2019-03-01T20:20:29.823Z,99.90
2019-03-01T20:22:59.930Z,99.90
2019-03-01T20:25:28.446Z,99.90
2019-03-01T20:27:56.898Z,99.90
2019-03-01T20:30:32.988Z,99.90
2019-03-01T20:33:01.511Z,99.90
2019-03-01T20:35:29.961Z,99.90
2019-03-01T20:38:00.386Z,99.90
2019-03-01T20:40:28.706Z,99.90
2019-03-01T20:43:00.455Z,99.90
2019-03-01T20:45:40.322Z,99.90
2019-03-01T20:48:08.845Z,99.90
2019-03-01T20:50:37.447Z,99.90
2019-03-01T20:53:05.900Z,99.90
2019-03-01T20:55:37.113Z,99.90
2019-03-01T20:58:04.606Z,99.90
2019-03-01T21:00:33.240Z,99.90
2019-03-01T21:03:01.675Z,99.90
2019-03-01T21:05:30.600Z,99.90
2019-03-01T21:07:59.317Z,99.90
2019-03-01T21:10:32.282Z,99.90
2019-03-01T21:13:00.798Z,99.90
2019-03-01T21:15:29.299Z,99.90
2019-03-01T21:17:58.726Z,99.90
2019-03-01T21:20:28.214Z,99.90
2019-03-01T21:22:56.665Z,99.90
2019-03-01T21:25:25.838Z,99.90
2019-03-01T21:27:57.475Z,99.90
2019-03-01T21:30:29.291Z,99.90
2019-03-01T21:32:57.748Z,99.90
2019-03-01T21:35:26.273Z,99.90
2019-03-01T21:37:54.797Z,99.90
2019-03-01T21:40:23.360Z,99.90
2019-03-01T21:42:52.901Z,99.90
2019-03-01T21:45:23.741Z,99.90
2019-03-01T21:47:52.261Z,99.90
2019-03-01T21:50:20.860Z,99.90
2019-03-01T21:52:49.393Z,99.90
2019-03-01T21:55:20.118Z,99.90
2019-03-01T21:57:48.573Z,99.90
2019-03-01T22:00:25.412Z,99.90
2019-03-01T22:02:54.141Z,99.90
2019-03-01T22:05:22.822Z,99.90
2019-03-01T22:07:51.283Z,99.90
2019-03-01T22:10:19.890Z,99.90
2019-03-01T22:12:48.335Z,99.90
2019-03-01T22:15:29.470Z,99.90
2019-03-01T22:17:57.914Z,99.90
2019-03-01T22:20:26.715Z,99.90
2019-03-01T22:22:55.160Z,99.90
2019-03-01T22:25:23.764Z,99.90
2019-03-01T22:27:52.298Z,99.90
2019-03-01T22:30:31.793Z,99.90
2019-03-01T22:33:00.246Z,99.90
2019-03-01T22:35:28.756Z,99.90
2019-03-01T22:38:00.994Z,99.90
2019-03-01T22:40:28.070Z,99.90
2019-03-01T22:42:57.562Z,99.90
2019-03-01T22:45:26.015Z,99.90
2019-03-01T22:47:54.454Z,99.90
2019-03-01T22:50:22.920Z,99.90
2019-03-01T22:52:51.374Z,99.90
2019-03-01T22:55:20.557Z,99.90
2019-03-01T22:57:49.082Z,99.90
2019-03-01T23:00:47.363Z,99.90
2019-03-01T23:03:18.886Z,99.90
2019-03-01T23:05:46.937Z,99.90
2019-03-01T23:08:15.559Z,99.90
2019-03-01T23:10:44.193Z,99.90
2019-03-01T23:13:12.709Z,99.90
2019-03-01T23:15:43.402Z,99.90
2019-03-01T23:18:11.463Z,99.90
2019-03-01T23:20:39.922Z,99.90
2019-03-01T23:23:08.387Z,99.90
2019-03-01T23:25:36.896Z,99.90
2019-03-01T23:28:08.173Z,99.90
2019-03-01T23:30:35.654Z,99.90
2019-03-01T23:33:04.169Z,99.90
2019-03-01T23:35:32.699Z,99.90
2019-03-01T23:38:01.154Z,99.90
2019-03-01T23:40:32.712Z,99.90
2019-03-01T23:42:59.782Z,99.90
2019-03-01T23:45:28.295Z,99.90
2019-03-01T23:47:56.744Z,99.90
2019-03-01T23:50:25.187Z,99.90
2019-03-01T23:52:54.853Z,99.90
2019-03-01T23:55:23.799Z,99.90
2019-03-01T23:57:52.318Z,99.90
